Time;durP1;ratioP1;P1;durP2;ratioP2;P2;SDS_P1;SDS_P2;PMS_P1;PMS_P2;Temp;Humidity;BMP_temperature;BMP_pressure;BME280_temperature;BME280_humidity;BME280_pressure;Samples;Min_cycle;Max_cycle;Signal;HPM_P1;HPM_P2
2024/01/14 00:00:59;;;;;;;24.77;17.85;;;5.30;56.20;;;;;;4974157;28;20022;-83
2024/01/14 00:03:27;;;;;;;21.90;16.70;;;5.40;56.40;;;;;;4979448;28;20031;-83
2024/01/14 00:05:53;;;;;;;23.58;18.90;;;5.30;56.20;;;;;;4979580;28;20029;-83
2024/01/14 00:08:19;;;;;;;20.85;17.23;;;5.40;56.40;;;;;;4981215;28;20074;-85
2024/01/14 00:10:45;;;;;;;21.13;17.17;;;5.30;56.20;;;;;;4978871;28;20034;-83
2024/01/14 00:13:11;;;;;;;20.95;17.33;;;5.40;56.40;;;;;;4974342;28;20050;-83
2024/01/14 00:15:37;;;;;;;22.50;17.80;;;5.40;56.40;;;;;;4959458;28;20057;-83
2024/01/14 00:18:04;;;;;;;23.25;18.23;;;5.30;56.10;;;;;;4981810;28;20086;-82
2024/01/14 00:20:30;;;;;;;21.60;17.77;;;5.30;56.20;;;;;;4977208;28;20456;-81
2024/01/14 00:22:56;;;;;;;22.67;18.02;;;5.40;56.40;;;;;;4993196;28;20181;-81
2024/01/14 00:25:23;;;;;;;20.65;16.70;;;5.40;56.30;;;;;;4962425;28;20049;-82
2024/01/14 00:27:49;;;;;;;21.80;17.83;;;5.40;56.30;;;;;;4958284;28;20209;-82
2024/01/14 00:30:16;;;;;;;21.20;17.13;;;5.40;56.30;;;;;;4990081;28;20065;-80
2024/01/14 00:32:42;;;;;;;22.20;17.40;;;5.40;56.30;;;;;;4977532;28;20042;-81
2024/01/14 00:35:09;;;;;;;21.30;17.50;;;5.40;56.30;;;;;;4961714;28;20405;-80
2024/01/14 00:37:35;;;;;;;20.42;17.30;;;5.40;56.40;;;;;;4980805;28;20129;-79
2024/01/14 00:40:02;;;;;;;22.42;17.42;;;5.40;56.30;;;;;;4966402;28;20062;-78
2024/01/14 00:42:28;;;;;;;19.45;16.45;;;5.40;56.30;;;;;;4963216;28;20116;-79
2024/01/14 00:44:54;;;;;;;21.40;16.25;;;5.40;56.30;;;;;;4972173;28;21131;-78
2024/01/14 00:47:19;;;;;;;19.92;16.45;;;5.40;56.40;;;;;;4964236;28;20078;-79
2024/01/14 00:49:47;;;;;;;22.58;17.33;;;5.40;56.40;;;;;;4972346;28;20026;-79
2024/01/14 00:52:13;;;;;;;23.08;17.75;;;5.30;56.20;;;;;;4972094;28;20043;-78
2024/01/14 00:54:40;;;;;;;19.77;15.70;;;5.40;56.40;;;;;;4977895;28;20065;-79
2024/01/14 00:57:07;;;;;;;19.58;15.73;;;5.40;56.30;;;;;;4993325;28;20070;-86
2024/01/14 00:59:33;;;;;;;21.27;16.65;;;5.40;56.40;;;;;;4979874;28;20038;-84
2024/01/14 01:02:02;;;;;;;20.10;17.45;;;5.40;56.40;;;;;;4978730;28;20062;-82
2024/01/14 01:04:33;;;;;;;20.83;16.60;;;5.40;56.40;;;;;;4976378;28;20212;-80
2024/01/14 01:07:01;;;;;;;21.35;17.00;;;5.40;56.30;;;;;;4992640;28;20069;-78
2024/01/14 01:09:30;;;;;;;20.02;16.88;;;5.40;56.30;;;;;;4994467;28;20042;-79
2024/01/14 01:11:59;;;;;;;21.15;15.25;;;5.40;56.30;;;;;;4968812;28;20572;-79
2024/01/14 01:14:25;;;;;;;20.63;16.33;;;5.40;56.30;;;;;;4994655;28;20102;-78
2024/01/14 01:16:51;;;;;;;22.30;17.45;;;5.40;56.30;;;;;;4982018;28;20437;-79
2024/01/14 01:19:17;;;;;;;20.75;15.70;;;5.40;56.30;;;;;;4980983;28;20030;-79
2024/01/14 01:21:45;;;;;;;19.35;16.33;;;5.40;56.30;;;;;;4978037;28;20097;-80
2024/01/14 01:24:14;;;;;;;18.77;15.50;;;5.40;56.30;;;;;;4979721;28;20396;-80
2024/01/14 01:26:41;;;;;;;19.77;16.30;;;5.40;56.30;;;;;;4982392;28;20097;-79
2024/01/14 01:29:09;;;;;;;19.08;16.10;;;5.40;56.30;;;;;;5021347;28;20038;-81
2024/01/14 01:31:35;;;;;;;19.80;16.35;;;5.40;56.30;;;;;;5003055;28;20049;-81
2024/01/14 01:34:01;;;;;;;19.38;15.48;;;5.40;56.30;;;;;;5015672;28;20099;-80
2024/01/14 01:36:27;;;;;;;20.10;16.20;;;5.40;56.30;;;;;;5006417;28;20121;-80
2024/01/14 01:38:53;;;;;;;19.75;16.58;;;5.40;56.30;;;;;;5022324;28;20014;-80
2024/01/14 01:41:22;;;;;;;18.60;15.10;;;5.40;56.30;;;;;;5003201;28;20039;-80
2024/01/14 01:43:47;;;;;;;19.65;16.02;;;5.40;56.30;;;;;;4998648;28;20023;-79
2024/01/14 01:46:15;;;;;;;17.80;14.98;;;5.40;56.90;;;;;;4998604;28;20813;-79
2024/01/14 01:48:41;;;;;;;18.92;15.93;;;5.40;56.90;;;;;;4976444;28;20673;-78
2024/01/14 01:51:08;;;;;;;18.02;14.52;;;5.40;56.30;;;;;;4978307;28;20205;-79
2024/01/14 01:53:34;;;;;;;17.15;14.38;;;5.50;56.60;;;;;;4982475;28;20042;-80
2024/01/14 01:56:03;;;;;;;18.63;15.43;;;5.40;56.30;;;;;;4982901;28;20029;-79
2024/01/14 01:58:29;;;;;;;21.00;16.23;;;5.40;56.30;;;;;;4964865;28;20034;-79
2024/01/14 02:00:55;;;;;;;19.55;16.45;;;5.40;56.30;;;;;;4976781;28;20066;-79
2024/01/14 02:03:24;;;;;;;17.92;14.57;;;5.40;56.30;;;;;;4983846;28;20129;-79
2024/01/14 02:05:57;;;;;;;19.65;15.90;;;5.40;56.30;;;;;;4980898;28;20458;-80
2024/01/14 02:08:24;;;;;;;18.48;14.48;;;5.40;56.30;;;;;;4983958;28;20372;-80
2024/01/14 02:10:50;;;;;;;18.48;15.13;;;5.40;56.30;;;;;;4980059;28;20084;-79
2024/01/14 02:13:16;;;;;;;16.50;14.10;;;5.40;56.30;;;;;;4982761;28;20069;-79
2024/01/14 02:15:42;;;;;;;18.55;15.18;;;5.40;56.40;;;;;;4980525;28;20035;-79
2024/01/14 02:18:08;;;;;;;19.45;15.30;;;5.40;56.40;;;;;;4983313;28;20329;-78
2024/01/14 02:20:34;;;;;;;19.58;14.85;;;5.40;56.40;;;;;;4978098;28;20018;-79
2024/01/14 02:23:04;;;;;;;18.45;14.82;;;5.40;56.30;;;;;;4983079;28;20085;-79
2024/01/14 02:25:31;;;;;;;18.90;14.40;;;5.40;56.40;;;;;;4984249;28;20035;-78
2024/01/14 02:27:57;;;;;;;20.13;15.40;;;5.40;56.40;;;;;;4981725;28;20023;-81
2024/01/14 02:30:23;;;;;;;17.17;14.18;;;5.50;56.60;;;;;;4979977;28;20057;-79
2024/01/14 02:32:50;;;;;;;18.55;14.75;;;5.40;56.40;;;;;;4980444;28;20050;-78
2024/01/14 02:35:16;;;;;;;17.90;14.18;;;5.50;56.60;;;;;;4982245;28;20372;-79
2024/01/14 02:37:47;;;;;;;17.98;14.05;;;5.50;56.60;;;;;;4999225;28;20062;-80
2024/01/14 02:40:16;;;;;;;15.80;13.23;;;5.50;56.60;;;;;;4983532;28;20026;-86
2024/01/14 02:42:42;;;;;;;18.92;14.95;;;5.50;56.60;;;;;;4972767;28;20137;-88
2024/01/14 02:45:08;;;;;;;17.25;13.85;;;5.50;56.60;;;;;;4966293;28;20539;-86
2024/01/14 02:47:34;;;;;;;21.00;14.27;;;5.50;56.60;;;;;;4980197;28;20107;-87
2024/01/14 02:50:00;;;;;;;18.30;14.70;;;5.50;56.60;;;;;;5000851;28;20100;-87
2024/01/14 02:52:26;;;;;;;17.30;13.98;;;5.50;56.60;;;;;;4983904;28;20073;-86
2024/01/14 02:54:52;;;;;;;18.15;14.43;;;5.50;56.60;;;;;;4985907;28;20038;-87
2024/01/14 02:57:18;;;;;;;17.95;14.35;;;5.50;56.60;;;;;;4985296;28;20076;-87
2024/01/14 02:59:43;;;;;;;20.00;14.65;;;5.50;56.60;;;;;;5001051;28;20023;-87
2024/01/14 03:02:10;;;;;;;16.33;13.63;;;5.60;56.80;;;;;;5000659;28;20034;-87
2024/01/14 03:04:36;;;;;;;16.17;13.68;;;5.50;56.60;;;;;;4986357;28;20030;-85
2024/01/14 03:07:03;;;;;;;16.55;13.85;;;5.60;56.80;;;;;;4997585;28;20038;-87
2024/01/14 03:09:29;;;;;;;17.58;14.38;;;5.60;56.80;;;;;;4983770;28;20042;-83
2024/01/14 03:11:55;;;;;;;17.67;14.05;;;5.60;56.70;;;;;;5004255;28;20034;-85
2024/01/14 03:14:21;;;;;;;19.48;14.15;;;5.60;56.80;;;;;;4984009;28;20034;-83
2024/01/14 03:16:46;;;;;;;18.83;15.40;;;5.60;56.80;;;;;;4986195;28;20040;-85
2024/01/14 03:19:13;;;;;;;17.75;13.77;;;5.60;56.80;;;;;;5001126;28;20042;-82
2024/01/14 03:21:39;;;;;;;15.60;13.05;;;5.60;56.70;;;;;;4982307;28;20076;-87
2024/01/14 03:24:05;;;;;;;17.20;14.45;;;5.60;57.30;;;;;;5000460;28;20046;-84
2024/01/14 03:26:30;;;;;;;17.67;14.18;;;5.60;56.80;;;;;;4986302;28;20034;-84
2024/01/14 03:28:56;;;;;;;15.48;13.75;;;5.60;56.80;;;;;;4984681;28;20033;-84
2024/01/14 03:31:22;;;;;;;16.45;13.70;;;5.60;56.80;;;;;;4985041;28;20137;-84
2024/01/14 03:33:49;;;;;;;16.88;14.15;;;5.60;56.80;;;;;;4985691;28;20042;-85
2024/01/14 03:36:15;;;;;;;17.98;14.63;;;5.60;56.80;;;;;;5000073;28;20499;-84
2024/01/14 03:38:41;;;;;;;15.90;13.50;;;5.60;56.80;;;;;;4968487;28;20042;-84
2024/01/14 03:41:07;;;;;;;16.70;13.40;;;5.60;56.80;;;;;;4982375;28;20085;-82
2024/01/14 03:43:33;;;;;;;17.45;13.90;;;5.60;56.80;;;;;;4985919;28;20066;-81
2024/01/14 03:45:59;;;;;;;15.60;13.70;;;5.60;56.80;;;;;;4984044;28;20473;-83
2024/01/14 03:48:25;;;;;;;15.70;13.80;;;5.60;56.80;;;;;;4985779;28;20073;-80
2024/01/14 03:50:51;;;;;;;15.65;13.63;;;5.60;56.80;;;;;;4981938;28;20696;-78
2024/01/14 03:53:18;;;;;;;15.25;13.50;;;5.60;56.80;;;;;;4999493;28;20212;-76
2024/01/14 03:55:47;;;;;;;16.40;13.43;;;5.60;56.80;;;;;;4995605;28;20111;-77
2024/01/14 03:58:13;;;;;;;15.90;13.70;;;5.70;57.00;;;;;;4995225;28;20089;-79
2024/01/14 04:00:39;;;;;;;15.93;13.73;;;5.70;57.00;;;;;;4965453;28;20062;-79
2024/01/14 04:03:06;;;;;;;14.32;12.82;;;5.70;57.00;;;;;;4985219;28;20073;-78
2024/01/14 04:05:32;;;;;;;16.95;14.75;;;5.60;56.80;;;;;;4966947;28;20097;-80
2024/01/14 04:07:57;;;;;;;15.82;13.95;;;5.60;56.80;;;;;;4984934;28;20523;-79
2024/01/14 04:10:23;;;;;;;15.93;12.68;;;5.70;57.00;;;;;;4984668;28;20042;-80
2024/01/14 04:12:49;;;;;;;17.00;13.70;;;5.70;57.00;;;;;;4983520;28;20039;-78
2024/01/14 04:15:15;;;;;;;16.85;14.18;;;5.70;57.00;;;;;;4998687;28;20038;-79
2024/01/14 04:17:41;;;;;;;16.23;14.02;;;5.70;57.10;;;;;;4983941;28;20053;-79
2024/01/14 04:20:08;;;;;;;15.55;13.88;;;5.70;57.00;;;;;;4965009;28;20676;-79
2024/01/14 04:22:34;;;;;;;15.70;13.48;;;5.60;56.90;;;;;;4983998;28;20031;-79
2024/01/14 04:25:00;;;;;;;17.27;13.73;;;5.60;56.90;;;;;;4983631;28;20027;-78
2024/01/14 04:27:26;;;;;;;16.15;13.75;;;5.60;56.90;;;;;;4984215;28;20086;-79
2024/01/14 04:29:51;;;;;;;16.35;14.02;;;5.70;57.10;;;;;;4983154;28;20420;-80
2024/01/14 04:32:17;;;;;;;14.65;12.90;;;5.70;57.10;;;;;;4999300;28;20358;-79
2024/01/14 04:34:44;;;;;;;17.83;14.05;;;5.70;57.10;;;;;;4985921;28;20050;-78
2024/01/14 04:37:10;;;;;;;16.48;13.48;;;5.70;57.10;;;;;;4985434;28;20049;-80
2024/01/14 04:39:36;;;;;;;17.08;14.02;;;5.70;57.10;;;;;;4988065;28;20030;-79
2024/01/14 04:42:02;;;;;;;16.60;13.07;;;5.70;57.10;;;;;;4982329;28;20034;-80
2024/01/14 04:44:29;;;;;;;17.15;13.40;;;5.70;57.10;;;;;;4999607;28;20034;-79
2024/01/14 04:46:56;;;;;;;16.77;13.73;;;5.70;57.10;;;;;;4998823;28;20053;-80
2024/01/14 04:49:22;;;;;;;18.83;14.40;;;5.70;57.10;;;;;;4987374;28;20049;-80
2024/01/14 04:51:51;;;;;;;17.55;14.82;;;5.70;57.10;;;;;;4980044;28;20034;-79
2024/01/14 04:54:17;;;;;;;17.75;14.23;;;5.70;57.10;;;;;;4983760;28;20041;-79
2024/01/14 04:56:43;;;;;;;15.43;13.38;;;5.70;57.10;;;;;;4987278;28;20022;-79
2024/01/14 04:59:09;;;;;;;15.48;12.93;;;5.70;57.20;;;;;;4984490;28;20085;-77
2024/01/14 05:01:35;;;;;;;17.38;14.48;;;5.70;57.20;;;;;;4985661;28;20026;-78
2024/01/14 05:04:03;;;;;;;16.33;13.57;;;5.70;57.20;;;;;;5003086;28;20517;-78
2024/01/14 05:06:29;;;;;;;18.23;12.95;;;5.70;57.20;;;;;;4988644;28;20121;-78
2024/01/14 05:08:56;;;;;;;16.23;13.35;;;5.60;57.00;;;;;;4988865;28;20112;-76
2024/01/14 05:11:22;;;;;;;15.68;13.63;;;5.60;57.00;;;;;;4987273;28;20495;-78
2024/01/14 05:13:48;;;;;;;17.35;14.10;;;5.60;57.10;;;;;;4988612;28;20509;-78
2024/01/14 05:16:14;;;;;;;16.85;12.68;;;5.60;57.10;;;;;;4985612;28;20037;-79
2024/01/14 05:18:41;;;;;;;16.63;12.95;;;5.60;57.10;;;;;;4988590;28;20034;-79
2024/01/14 05:21:07;;;;;;;17.45;13.77;;;5.60;57.10;;;;;;4980955;28;20133;-83
2024/01/14 05:23:33;;;;;;;16.52;13.98;;;5.60;57.70;;;;;;5003252;28;20042;-89
2024/01/14 05:26:03;;;;;;;15.80;13.02;;;5.60;57.10;;;;;;5000825;28;20061;-89
2024/01/14 05:28:29;;;;;;;16.13;13.18;;;5.60;57.10;;;;;;4985680;28;20038;-88
2024/01/14 05:30:55;;;;;;;15.85;13.63;;;5.60;57.10;;;;;;4988479;28;20106;-88
2024/01/14 05:33:21;;;;;;;16.95;13.20;;;5.60;57.10;;;;;;4979093;28;20162;-89
2024/01/14 05:35:47;;;;;;;15.90;14.00;;;5.60;57.10;;;;;;4969229;28;20030;-88
2024/01/14 05:38:13;;;;;;;16.55;13.88;;;5.60;57.20;;;;;;5002526;28;20161;-87
2024/01/14 05:40:40;;;;;;;15.68;12.52;;;5.60;57.20;;;;;;4987911;28;20106;-87
2024/01/14 05:43:06;;;;;;;15.15;13.18;;;5.60;57.20;;;;;;4981654;28;20107;-88
2024/01/14 05:45:32;;;;;;;15.98;13.73;;;5.60;57.30;;;;;;4987415;28;20446;-88
2024/01/14 05:47:58;;;;;;;16.10;13.90;;;5.60;57.30;;;;;;4982537;28;20058;-89
2024/01/14 05:50:23;;;;;;;17.02;13.63;;;5.60;57.30;;;;;;4998481;28;20133;-88
2024/01/14 05:52:49;;;;;;;16.10;13.98;;;5.60;57.30;;;;;;4983572;28;20185;-86
2024/01/14 05:55:15;;;;;;;16.58;13.95;;;5.60;57.30;;;;;;4983978;28;20045;-86
2024/01/14 05:57:41;;;;;;;16.77;14.00;;;5.60;57.40;;;;;;4996366;28;20026;-85
2024/01/14 06:00:08;;;;;;;16.77;12.68;;;5.60;57.40;;;;;;4981638;28;20037;-84
2024/01/14 06:02:34;;;;;;;16.15;13.38;;;5.60;57.40;;;;;;4979708;28;20048;-86
2024/01/14 06:05:01;;;;;;;16.85;14.10;;;5.60;57.50;;;;;;4994134;28;20038;-86
2024/01/14 06:07:27;;;;;;;20.67;14.93;;;5.50;57.30;;;;;;4998202;28;20037;-87
2024/01/14 06:09:53;;;;;;;19.65;15.45;;;5.50;57.30;;;;;;4982183;28;20031;-86
2024/01/14 06:12:19;;;;;;;15.73;14.02;;;5.50;57.40;;;;;;4977488;28;20075;-84
2024/01/14 06:14:45;;;;;;;18.67;14.73;;;5.50;57.40;;;;;;4981548;28;20132;-85
2024/01/14 06:17:11;;;;;;;15.95;13.05;;;5.50;57.40;;;;;;4980599;28;20045;-87
2024/01/14 06:19:37;;;;;;;17.30;14.30;;;5.60;57.60;;;;;;4994099;28;20400;-87
2024/01/14 06:22:03;;;;;;;16.77;13.73;;;5.50;57.40;;;;;;4991105;28;20465;-86
2024/01/14 06:24:29;;;;;;;16.30;13.88;;;5.50;57.50;;;;;;4975234;28;20076;-86
2024/01/14 06:26:56;;;;;;;16.73;13.30;;;5.60;57.60;;;;;;4970862;28;20137;-87
2024/01/14 06:29:24;;;;;;;17.05;14.23;;;5.60;57.60;;;;;;4982636;28;20121;-87
2024/01/14 06:31:50;;;;;;;18.02;14.32;;;5.50;57.50;;;;;;4965045;28;20773;-87
2024/01/14 06:34:16;;;;;;;16.83;13.85;;;5.50;57.50;;;;;;4977526;28;20132;-85
2024/01/14 06:36:42;;;;;;;15.80;13.98;;;5.50;57.50;;;;;;4981740;28;20203;-85
2024/01/14 06:39:08;;;;;;;16.40;14.70;;;5.50;57.50;;;;;;4997098;28;20485;-87
2024/01/14 06:41:34;;;;;;;17.65;14.20;;;5.50;57.50;;;;;;4985165;28;20042;-86
2024/01/14 06:44:00;;;;;;;15.75;13.48;;;5.50;57.50;;;;;;4981829;28;20030;-84
2024/01/14 06:46:27;;;;;;;16.42;13.75;;;5.50;57.50;;;;;;4972726;28;20082;-83
2024/01/14 06:48:53;;;;;;;20.33;15.00;;;5.50;57.60;;;;;;4968970;28;20513;-82
2024/01/14 06:51:20;;;;;;;18.48;14.70;;;5.50;57.60;;;;;;4977476;28;20113;-81
2024/01/14 06:53:47;;;;;;;16.23;13.25;;;5.50;57.70;;;;;;4976522;28;20050;-79
2024/01/14 06:56:16;;;;;;;17.33;14.02;;;5.50;57.70;;;;;;4989220;28;20452;-82
2024/01/14 06:58:42;;;;;;;19.42;15.10;;;5.50;57.70;;;;;;4994119;28;20539;-81
2024/01/14 07:01:08;;;;;;;17.65;13.77;;;5.50;57.70;;;;;;4981050;28;20122;-82
2024/01/14 07:03:35;;;;;;;17.38;14.40;;;5.50;57.80;;;;;;4989082;28;20053;-80
2024/01/14 07:06:01;;;;;;;18.08;14.73;;;5.50;57.80;;;;;;4977023;28;20129;-81
2024/01/14 07:08:27;;;;;;;19.52;15.05;;;5.40;57.60;;;;;;4970296;28;20034;-84
2024/01/14 07:10:53;;;;;;;17.90;15.10;;;5.50;57.80;;;;;;4984302;28;20044;-80
2024/01/14 07:13:19;;;;;;;19.73;15.27;;;5.50;57.80;;;;;;4971303;28;20050;-80
2024/01/14 07:15:46;;;;;;;18.80;14.70;;;5.50;57.80;;;;;;4969490;28;20035;-78
2024/01/14 07:18:12;;;;;;;18.77;15.05;;;5.50;57.80;;;;;;4974632;28;20249;-78
2024/01/14 07:20:40;;;;;;;19.60;14.75;;;5.50;57.80;;;;;;4982266;28;20466;-79
2024/01/14 07:23:06;;;;;;;19.02;15.32;;;5.50;57.80;;;;;;4969299;28;20031;-79
2024/01/14 07:25:32;;;;;;;18.08;14.65;;;5.50;57.80;;;;;;4970245;28;20037;-77
2024/01/14 07:27:58;;;;;;;18.80;14.95;;;5.50;57.80;;;;;;4991922;28;20439;-78
2024/01/14 07:30:24;;;;;;;21.02;15.95;;;5.50;57.90;;;;;;4988238;28;20113;-80
2024/01/14 07:32:50;;;;;;;19.60;15.07;;;5.50;57.90;;;;;;4988524;28;20062;-78
2024/01/14 07:35:16;;;;;;;17.52;14.65;;;5.50;57.90;;;;;;4973082;28;20046;-77
2024/01/14 07:37:42;;;;;;;19.08;15.48;;;5.50;58.00;;;;;;4973492;28;20038;-77
2024/01/14 07:40:11;;;;;;;18.80;15.98;;;5.40;57.80;;;;;;4973515;28;20069;-84
2024/01/14 07:42:37;;;;;;;17.73;13.88;;;5.40;57.80;;;;;;4975710;28;20549;-76
2024/01/14 07:45:03;;;;;;;16.80;13.80;;;5.40;57.80;;;;;;4992950;28;20558;-77
2024/01/14 07:47:30;;;;;;;17.65;14.35;;;5.40;58.00;;;;;;4945866;28;20066;-76
2024/01/14 07:49:56;;;;;;;18.60;14.77;;;5.50;58.40;;;;;;4996214;28;20037;-76
2024/01/14 07:52:22;;;;;;;18.15;14.77;;;5.50;58.50;;;;;;4973905;28;20050;-77
2024/01/14 07:54:48;;;;;;;21.27;14.55;;;5.50;58.50;;;;;;4973875;28;20038;-79
2024/01/14 07:57:14;;;;;;;19.58;14.98;;;5.50;58.50;;;;;;5001364;28;20530;-81
2024/01/14 07:59:40;;;;;;;18.35;14.43;;;5.50;58.50;;;;;;4977838;28;20036;-84
2024/01/14 08:02:07;;;;;;;18.45;13.98;;;5.50;58.60;;;;;;4965768;28;20176;-81
2024/01/14 08:04:33;;;;;;;18.25;14.43;;;5.50;58.60;;;;;;4969911;28;20113;-77
2024/01/14 08:06:59;;;;;;;18.20;14.43;;;5.60;59.10;;;;;;4963317;28;20034;-74
2024/01/14 08:09:24;;;;;;;18.98;14.27;;;5.70;59.60;;;;;;4977024;28;20038;-79
2024/01/14 08:11:50;;;;;;;19.73;15.13;;;5.60;59.50;;;;;;4974153;28;20042;-77
2024/01/14 08:14:17;;;;;;;19.10;13.93;;;5.70;59.80;;;;;;4967518;28;20441;-77
2024/01/14 08:16:43;;;;;;;17.52;14.35;;;5.70;59.80;;;;;;4982753;28;20038;-77
2024/01/14 08:19:10;;;;;;;18.75;14.48;;;5.70;59.80;;;;;;5012486;28;20117;-81
2024/01/14 08:21:36;;;;;;;20.73;16.05;;;5.70;59.90;;;;;;4984573;28;20039;-81
2024/01/14 08:24:03;;;;;;;16.50;13.95;;;5.70;59.90;;;;;;4993340;28;20045;-82
2024/01/14 08:26:30;;;;;;;19.65;15.02;;;5.70;60.00;;;;;;5008034;28;20053;-85
2024/01/14 08:28:56;;;;;;;21.67;16.15;;;5.70;60.00;;;;;;5014471;28;20026;-84
2024/01/14 08:31:22;;;;;;;18.65;15.27;;;5.70;60.00;;;;;;4997536;28;20023;-82
2024/01/14 08:33:47;;;;;;;20.05;15.70;;;5.70;60.00;;;;;;4995776;28;20335;-81
2024/01/14 08:36:13;;;;;;;19.35;14.82;;;5.70;60.00;;;;;;4994075;28;20042;-83
2024/01/14 08:38:39;;;;;;;18.77;15.63;;;5.70;60.00;;;;;;4996228;28;20097;-82
2024/01/14 08:41:06;;;;;;;19.83;15.50;;;5.70;60.00;;;;;;4980631;28;20137;-82
2024/01/14 08:43:33;;;;;;;18.80;15.38;;;5.70;60.00;;;;;;4984662;28;20461;-83
2024/01/14 08:46:00;;;;;;;22.13;15.68;;;5.70;60.00;;;;;;5010240;28;20042;-82
2024/01/14 08:48:26;;;;;;;18.95;14.65;;;5.70;60.00;;;;;;4997659;28;20099;-83
2024/01/14 08:50:53;;;;;;;18.70;14.93;;;5.70;60.00;;;;;;4997057;28;20042;-83
2024/01/14 08:53:19;;;;;;;19.05;14.85;;;5.70;60.00;;;;;;4980021;28;20208;-82
2024/01/14 08:55:45;;;;;;;18.33;14.98;;;5.70;60.00;;;;;;4979199;28;20683;-82
2024/01/14 08:58:12;;;;;;;17.80;14.38;;;5.80;60.10;;;;;;4964657;28;20039;-86
2024/01/14 09:00:39;;;;;;;21.35;16.23;;;5.80;60.10;;;;;;4994253;28;20045;-80
2024/01/14 09:03:05;;;;;;;20.80;15.60;;;5.80;60.10;;;;;;4982216;28;20049;-83
2024/01/14 09:05:31;;;;;;;17.75;14.10;;;5.80;60.00;;;;;;4974332;28;20030;-81
2024/01/14 09:07:57;;;;;;;22.20;15.75;;;5.90;60.20;;;;;;4967379;28;20042;-81
2024/01/14 09:10:23;;;;;;;20.42;14.98;;;5.90;60.10;;;;;;4975362;28;20049;-81
2024/01/14 09:12:49;;;;;;;21.10;16.10;;;5.90;60.10;;;;;;4979048;28;20039;-81
2024/01/14 09:15:16;;;;;;;18.50;15.00;;;5.90;60.10;;;;;;4966850;28;20124;-81
2024/01/14 09:17:42;;;;;;;19.73;14.90;;;5.90;60.00;;;;;;4970644;28;20066;-81
2024/01/14 09:20:08;;;;;;;19.48;16.70;;;5.90;60.00;;;;;;4971866;28;20509;-81
2024/01/14 09:22:35;;;;;;;20.65;15.52;;;6.00;60.20;;;;;;4976156;28;20393;-82
2024/01/14 09:25:00;;;;;;;20.02;15.70;;;6.00;60.20;;;;;;4972051;28;20054;-81
2024/01/14 09:27:30;;;;;;;20.60;15.88;;;6.00;60.10;;;;;;4973514;28;20488;-82
2024/01/14 09:29:56;;;;;;;19.48;15.77;;;6.10;60.30;;;;;;4972979;28;20354;-85
2024/01/14 09:32:22;;;;;;;19.90;15.90;;;6.10;60.20;;;;;;4975519;28;20133;-84
2024/01/14 09:34:48;;;;;;;18.63;15.80;;;6.10;60.20;;;;;;4975334;28;20881;-83
2024/01/14 09:37:14;;;;;;;20.52;15.77;;;6.10;60.10;;;;;;4979208;28;20357;-88
2024/01/14 09:39:47;;;;;;;21.10;16.38;;;6.20;60.30;;;;;;4978861;28;20385;-84
2024/01/14 09:42:28;;;;;;;22.23;16.60;;;6.20;60.20;;;;;;4972940;28;20045;-85
2024/01/14 09:45:02;;;;;;;20.65;16.67;;;6.20;60.20;;;;;;4980469;28;20567;-94
2024/01/14 09:47:28;;;;;;;19.45;15.27;;;6.30;60.30;;;;;;4990607;28;20165;-85
2024/01/14 09:49:58;;;;;;;19.33;15.45;;;6.30;60.20;;;;;;4971966;28;20045;-86
2024/01/14 09:52:27;;;;;;;20.10;15.10;;;6.30;60.10;;;;;;4967813;28;20050;-83
2024/01/14 09:54:55;;;;;;;19.63;15.43;;;6.40;60.30;;;;;;4972530;28;20543;-84
2024/01/14 09:57:21;;;;;;;21.52;15.65;;;6.40;60.20;;;;;;4975785;28;20520;-83
2024/01/14 09:59:51;;;;;;;19.58;15.20;;;6.50;60.30;;;;;;4972415;28;20091;-83
2024/01/14 10:02:19;;;;;;;20.58;15.57;;;6.50;60.30;;;;;;4979666;28;20496;-82
2024/01/14 10:04:45;;;;;;;18.83;15.30;;;6.50;60.20;;;;;;4995111;28;20113;-82
2024/01/14 10:07:12;;;;;;;18.60;15.07;;;6.60;60.40;;;;;;4980164;28;20269;-83
2024/01/14 10:09:42;;;;;;;18.85;15.88;;;6.60;60.30;;;;;;4990333;28;20104;-83
2024/01/14 10:12:10;;;;;;;19.30;15.02;;;6.70;60.50;;;;;;4973908;28;20108;-84
2024/01/14 10:14:37;;;;;;;21.15;15.50;;;6.70;60.40;;;;;;4967865;28;20122;-84
2024/01/14 10:17:04;;;;;;;19.45;13.43;;;6.80;60.50;;;;;;4987369;28;20195;-86
2024/01/14 10:19:31;;;;;;;33.40;19.42;;;6.80;60.40;;;;;;4991627;28;20553;-85
2024/01/14 10:21:57;;;;;;;40.72;20.95;;;6.80;60.40;;;;;;4976007;28;20445;-83
2024/01/14 10:24:24;;;;;;;36.80;20.58;;;6.80;60.50;;;;;;4984745;28;20064;-84
2024/01/14 10:26:54;;;;;;;34.53;18.75;;;6.90;60.90;;;;;;4992850;28;20113;-84
2024/01/14 10:29:21;;;;;;;31.67;19.85;;;6.90;61.00;;;;;;4993418;28;20085;-83
2024/01/14 10:31:48;;;;;;;30.00;19.48;;;7.00;61.30;;;;;;4981535;28;20341;-81
2024/01/14 10:34:17;;;;;;;35.78;20.23;;;7.00;61.30;;;;;;4974285;28;20106;-80
2024/01/14 10:36:43;;;;;;;32.22;18.85;;;7.10;61.60;;;;;;4976615;28;20730;-79
2024/01/14 10:39:12;;;;;;;33.85;18.63;;;7.20;61.80;;;;;;4975306;28;20068;-82
2024/01/14 10:41:39;;;;;;;29.13;18.42;;;7.20;61.90;;;;;;4973903;28;20124;-82
2024/01/14 10:44:06;;;;;;;27.45;17.45;;;7.30;62.10;;;;;;4971072;28;20030;-81
2024/01/14 10:46:36;;;;;;;29.38;18.23;;;7.30;62.00;;;;;;4966852;28;20053;-82
2024/01/14 10:49:06;;;;;;;28.67;16.83;;;7.40;62.70;;;;;;4974618;28;20121;-81
2024/01/14 10:51:40;;;;;;;26.00;16.88;;;7.40;62.10;;;;;;4992425;28;20106;-83
2024/01/14 10:54:26;;;;;;;21.25;15.50;;;7.50;62.20;;;;;;4992022;28;20516;-83
2024/01/14 10:57:21;;;;;;;23.35;15.82;;;7.60;62.20;;;;;;4977187;28;20108;-83
2024/01/14 10:59:50;;;;;;;21.45;15.80;;;7.60;62.20;;;;;;4963955;28;20054;-83
2024/01/14 11:02:17;;;;;;;25.33;16.27;;;7.60;62.00;;;;;;4968031;28;20056;-84
2024/01/14 11:04:47;;;;;;;21.13;15.13;;;7.70;62.10;;;;;;4974233;28;20062;-82
2024/01/14 11:07:13;;;;;;;21.08;14.50;;;7.80;62.20;;;;;;4977222;28;20434;-82
2024/01/14 11:09:41;;;;;;;17.95;14.20;;;7.80;62.10;;;;;;4989943;28;20205;-84
2024/01/14 11:12:39;;;;;;;19.55;15.55;;;7.90;62.20;;;;;;4973711;28;20116;-81
2024/01/14 11:15:30;;;;;;;23.48;15.85;;;7.90;62.10;;;;;;4958792;28;20141;-80
2024/01/14 11:18:09;;;;;;;19.23;15.20;;;7.90;62.00;;;;;;4975871;28;20128;-80
2024/01/14 11:20:38;;;;;;;21.30;15.55;;;8.00;62.00;;;;;;4985315;28;20719;-81
2024/01/14 11:23:05;;;;;;;18.08;13.93;;;8.00;62.00;;;;;;4962308;28;20130;-81
2024/01/14 11:25:33;;;;;;;17.83;13.48;;;8.10;62.00;;;;;;4976162;28;20085;-81
2024/01/14 11:28:02;;;;;;;19.15;14.70;;;8.10;61.90;;;;;;4980981;28;20501;-81
2024/01/14 11:30:47;;;;;;;18.45;13.80;;;8.20;62.00;;;;;;4961235;28;20723;-80
2024/01/14 11:33:48;;;;;;;20.45;15.45;;;8.20;61.90;;;;;;4964475;28;20054;-84
2024/01/14 11:36:53;;;;;;;20.38;13.98;;;8.20;61.80;;;;;;4977134;28;20042;-80
2024/01/14 11:39:19;;;;;;;20.05;14.57;;;8.30;62.40;;;;;;4971885;28;20049;-82
2024/01/14 11:41:45;;;;;;;18.60;12.98;;;8.40;61.90;;;;;;4970721;28;20821;-82
2024/01/14 11:44:12;;;;;;;17.80;14.63;;;8.40;61.80;;;;;;4974996;28;20140;-82
2024/01/14 11:46:42;;;;;;;16.33;13.57;;;8.40;61.80;;;;;;4961910;28;20070;-82
2024/01/14 11:49:16;;;;;;;16.80;12.95;;;8.50;61.90;;;;;;4960487;28;20034;-84
2024/01/14 11:51:59;;;;;;;18.30;13.50;;;8.50;61.80;;;;;;4977225;28;20034;-84
2024/01/14 11:54:31;;;;;;;16.70;12.23;;;8.60;61.90;;;;;;4984704;28;20197;-84
2024/01/14 11:57:01;;;;;;;16.42;12.15;;;8.60;61.80;;;;;;4991352;28;20092;-87
2024/01/14 11:59:26;;;;;;;16.98;12.27;;;8.70;61.90;;;;;;4973402;28;20496;-85
2024/01/14 12:01:56;;;;;;;14.63;11.52;;;8.70;61.90;;;;;;4992123;28;20383;-84
2024/01/14 12:04:23;;;;;;;17.35;12.93;;;8.70;61.90;;;;;;4992472;28;20040;-85
2024/01/14 12:06:50;;;;;;;14.98;12.07;;;8.80;62.00;;;;;;4973793;28;20117;-82
2024/01/14 12:09:17;;;;;;;13.13;10.57;;;8.80;62.00;;;;;;4975836;28;20477;-83
2024/01/14 12:11:43;;;;;;;14.85;11.32;;;8.90;62.30;;;;;;4973878;28;20044;-83
2024/01/14 12:14:10;;;;;;;13.25;10.88;;;8.90;62.30;;;;;;4975326;28;20085;-84
2024/01/14 12:16:39;;;;;;;13.48;9.98;;;8.90;62.30;;;;;;4977335;28;20030;-83
2024/01/14 12:19:18;;;;;;;12.70;10.23;;;9.00;62.40;;;;;;4973606;28;20054;-84
2024/01/14 12:21:45;;;;;;;13.85;9.98;;;9.00;62.40;;;;;;4973250;28;20783;-84
2024/01/14 12:24:12;;;;;;;12.85;10.35;;;9.00;62.40;;;;;;4961540;28;20427;-83
2024/01/14 12:26:38;;;;;;;11.30;8.65;;;9.00;62.40;;;;;;4992290;28;20038;-82
2024/01/14 12:29:05;;;;;;;13.10;9.93;;;9.00;62.30;;;;;;4972067;28;20043;-83
2024/01/14 12:31:34;;;;;;;9.60;8.20;;;9.00;62.30;;;;;;4984549;28;20192;-83
2024/01/14 12:34:08;;;;;;;10.00;7.95;;;9.00;62.30;;;;;;4988188;28;20042;-83
2024/01/14 12:36:35;;;;;;;;;;;9.00;62.30;;;;;;4975739;28;20034;-82
2024/01/14 12:39:03;;;;;;;10.35;7.47;;;9.00;62.30;;;;;;4972382;28;20434;-84